sensor_id;sensor_type;location;lat;lon;timestamp;P1;durP1;ratioP1;P2;durP2;ratioP2
36963;SDS011;22878;48.616;35.326;2023-03-01T00:01:40;111.00;;;41.90;;
36963;SDS011;22878;48.616;35.326;2023-03-01T00:04:06;105.30;;;41.90;;
36963;SDS011;22878;48.616;35.326;2023-03-01T00:06:31;107.90;;;41.30;;
36963;SDS011;22878;48.616;35.326;2023-03-01T00:08:57;106.60;;;41.80;;
36963;SDS011;22878;48.616;35.326;2023-03-01T00:11:24;103.40;;;41.90;;
36963;SDS011;22878;48.616;35.326;2023-03-01T00:13:55;116.30;;;43.30;;
36963;SDS011;22878;48.616;35.326;2023-03-01T00:16:27;114.00;;;41.50;;
36963;SDS011;22878;48.616;35.326;2023-03-01T00:18:56;115.10;;;42.70;;
36963;SDS011;22878;48.616;35.326;2023-03-01T00:21:22;114.00;;;43.70;;
36963;SDS011;22878;48.616;35.326;2023-03-01T00:23:48;116.80;;;42.60;;
36963;SDS011;22878;48.616;35.326;2023-03-01T00:26:15;116.50;;;42.30;;
36963;SDS011;22878;48.616;35.326;2023-03-01T00:28:41;113.60;;;41.30;;
36963;SDS011;22878;48.616;35.326;2023-03-01T00:31:11;115.40;;;43.50;;
36963;SDS011;22878;48.616;35.326;2023-03-01T00:33:39;113.50;;;41.80;;
36963;SDS011;22878;48.616;35.326;2023-03-01T00:36:06;113.50;;;43.20;;
36963;SDS011;22878;48.616;35.326;2023-03-01T00:38:36;123.20;;;43.30;;
36963;SDS011;22878;48.616;35.326;2023-03-01T00:41:03;115.50;;;43.10;;
36963;SDS011;22878;48.616;35.326;2023-03-01T00:43:30;112.80;;;41.60;;
36963;SDS011;22878;48.616;35.326;2023-03-01T00:45:56;127.10;;;44.40;;
36963;SDS011;22878;48.616;35.326;2023-03-01T00:48:26;104.40;;;38.90;;
36963;SDS011;22878;48.616;35.326;2023-03-01T00:50:51;119.60;;;41.50;;
36963;SDS011;22878;48.616;35.326;2023-03-01T00:53:17;117.30;;;42.30;;
36963;SDS011;22878;48.616;35.326;2023-03-01T00:55:42;110.80;;;42.90;;
36963;SDS011;22878;48.616;35.326;2023-03-01T00:58:08;108.80;;;41.50;;
36963;SDS011;22878;48.616;35.326;2023-03-01T01:00:33;107.90;;;39.30;;
36963;SDS011;22878;48.616;35.326;2023-03-01T01:02:59;102.40;;;38.60;;
36963;SDS011;22878;48.616;35.326;2023-03-01T01:05:24;97.20;;;37.00;;
36963;SDS011;22878;48.616;35.326;2023-03-01T01:11:11;100.80;;;38.30;;
36963;SDS011;22878;48.616;35.326;2023-03-01T01:13:38;95.20;;;37.70;;
36963;SDS011;22878;48.616;35.326;2023-03-01T01:16:04;91.90;;;35.70;;
36963;SDS011;22878;48.616;35.326;2023-03-01T01:18:30;99.40;;;37.30;;
36963;SDS011;22878;48.616;35.326;2023-03-01T01:20:55;92.60;;;37.20;;
36963;SDS011;22878;48.616;35.326;2023-03-01T01:23:21;90.50;;;35.60;;
36963;SDS011;22878;48.616;35.326;2023-03-01T01:25:47;84.20;;;34.60;;
36963;SDS011;22878;48.616;35.326;2023-03-01T01:28:12;82.50;;;34.40;;
36963;SDS011;22878;48.616;35.326;2023-03-01T01:30:38;83.70;;;34.90;;
36963;SDS011;22878;48.616;35.326;2023-03-01T01:33:03;83.90;;;33.20;;
36963;SDS011;22878;48.616;35.326;2023-03-01T01:35:28;83.90;;;34.80;;
36963;SDS011;22878;48.616;35.326;2023-03-01T01:37:54;77.70;;;32.10;;
36963;SDS011;22878;48.616;35.326;2023-03-01T01:40:19;79.30;;;33.20;;
36963;SDS011;22878;48.616;35.326;2023-03-01T01:42:45;75.60;;;31.50;;
36963;SDS011;22878;48.616;35.326;2023-03-01T01:50:54;78.60;;;32.10;;
36963;SDS011;22878;48.616;35.326;2023-03-01T01:53:23;70.90;;;30.50;;
36963;SDS011;22878;48.616;35.326;2023-03-01T01:55:51;69.20;;;31.40;;
36963;SDS011;22878;48.616;35.326;2023-03-01T01:58:22;86.30;;;33.10;;
36963;SDS011;22878;48.616;35.326;2023-03-01T02:00:52;74.60;;;30.50;;
36963;SDS011;22878;48.616;35.326;2023-03-01T02:03:19;68.80;;;31.00;;
36963;SDS011;22878;48.616;35.326;2023-03-01T02:05:56;68.90;;;30.80;;
36963;SDS011;22878;48.616;35.326;2023-03-01T02:08:29;68.90;;;28.50;;
36963;SDS011;22878;48.616;35.326;2023-03-01T02:10:57;70.40;;;31.10;;
36963;SDS011;22878;48.616;35.326;2023-03-01T02:13:25;65.90;;;29.50;;
36963;SDS011;22878;48.616;35.326;2023-03-01T02:15:51;71.90;;;29.40;;
36963;SDS011;22878;48.616;35.326;2023-03-01T02:18:17;60.20;;;28.00;;
36963;SDS011;22878;48.616;35.326;2023-03-01T02:23:43;62.40;;;28.10;;
36963;SDS011;22878;48.616;35.326;2023-03-01T02:26:15;60.00;;;27.20;;
36963;SDS011;22878;48.616;35.326;2023-03-01T02:28:45;59.20;;;26.80;;
36963;SDS011;22878;48.616;35.326;2023-03-01T02:31:14;62.20;;;27.30;;
36963;SDS011;22878;48.616;35.326;2023-03-01T02:34:02;63.60;;;26.70;;
36963;SDS011;22878;48.616;35.326;2023-03-01T02:36:35;57.50;;;26.60;;
36963;SDS011;22878;48.616;35.326;2023-03-01T02:39:04;56.30;;;26.20;;
36963;SDS011;22878;48.616;35.326;2023-03-01T02:41:36;61.20;;;26.50;;
36963;SDS011;22878;48.616;35.326;2023-03-01T02:44:04;56.50;;;25.30;;
36963;SDS011;22878;48.616;35.326;2023-03-01T02:46:30;59.10;;;26.20;;
36963;SDS011;22878;48.616;35.326;2023-03-01T02:48:56;57.60;;;24.90;;
36963;SDS011;22878;48.616;35.326;2023-03-01T02:56:40;50.00;;;23.40;;
36963;SDS011;22878;48.616;35.326;2023-03-01T02:59:08;54.90;;;24.30;;
36963;SDS011;22878;48.616;35.326;2023-03-01T03:01:35;52.10;;;23.50;;
36963;SDS011;22878;48.616;35.326;2023-03-01T03:04:07;47.30;;;22.50;;
36963;SDS011;22878;48.616;35.326;2023-03-01T03:06:36;49.20;;;23.80;;
36963;SDS011;22878;48.616;35.326;2023-03-01T03:09:03;49.50;;;23.00;;
36963;SDS011;22878;48.616;35.326;2023-03-01T03:11:30;50.60;;;23.80;;
36963;SDS011;22878;48.616;35.326;2023-03-01T03:13:57;44.00;;;21.60;;
36963;SDS011;22878;48.616;35.326;2023-03-01T03:16:22;50.70;;;23.20;;
36963;SDS011;22878;48.616;35.326;2023-03-01T03:18:48;51.20;;;22.60;;
36963;SDS011;22878;48.616;35.326;2023-03-01T03:21:14;48.80;;;22.50;;
36963;SDS011;22878;48.616;35.326;2023-03-01T03:23:41;55.10;;;25.00;;
36963;SDS011;22878;48.616;35.326;2023-03-01T03:26:07;49.60;;;23.50;;
36963;SDS011;22878;48.616;35.326;2023-03-01T03:28:33;55.20;;;23.90;;
36963;SDS011;22878;48.616;35.326;2023-03-01T03:30:59;54.10;;;24.20;;
36963;SDS011;22878;48.616;35.326;2023-03-01T03:33:29;57.50;;;26.10;;
36963;SDS011;22878;48.616;35.326;2023-03-01T03:35:55;52.90;;;25.50;;
36963;SDS011;22878;48.616;35.326;2023-03-01T03:38:21;55.60;;;25.20;;
36963;SDS011;22878;48.616;35.326;2023-03-01T03:41:05;54.40;;;24.90;;
36963;SDS011;22878;48.616;35.326;2023-03-01T03:43:34;54.50;;;25.10;;
36963;SDS011;22878;48.616;35.326;2023-03-01T03:46:01;50.90;;;24.10;;
36963;SDS011;22878;48.616;35.326;2023-03-01T03:48:31;58.40;;;25.40;;
36963;SDS011;22878;48.616;35.326;2023-03-01T03:50:59;50.70;;;23.60;;
36963;SDS011;22878;48.616;35.326;2023-03-01T03:53:25;53.10;;;24.00;;
36963;SDS011;22878;48.616;35.326;2023-03-01T03:55:52;61.60;;;25.60;;
36963;SDS011;22878;48.616;35.326;2023-03-01T03:58:19;53.80;;;24.50;;
36963;SDS011;22878;48.616;35.326;2023-03-01T04:00:47;51.00;;;24.50;;
36963;SDS011;22878;48.616;35.326;2023-03-01T04:03:16;53.20;;;24.20;;
36963;SDS011;22878;48.616;35.326;2023-03-01T04:05:43;52.60;;;23.40;;
36963;SDS011;22878;48.616;35.326;2023-03-01T04:08:09;53.50;;;24.10;;
36963;SDS011;22878;48.616;35.326;2023-03-01T04:10:39;53.60;;;23.70;;
36963;SDS011;22878;48.616;35.326;2023-03-01T04:13:08;58.50;;;23.70;;
36963;SDS011;22878;48.616;35.326;2023-03-01T04:15:36;53.90;;;24.20;;
36963;SDS011;22878;48.616;35.326;2023-03-01T04:18:02;51.00;;;23.60;;
36963;SDS011;22878;48.616;35.326;2023-03-01T04:20:28;51.30;;;23.40;;
36963;SDS011;22878;48.616;35.326;2023-03-01T04:22:59;50.50;;;22.50;;
36963;SDS011;22878;48.616;35.326;2023-03-01T04:28:31;55.30;;;24.40;;
36963;SDS011;22878;48.616;35.326;2023-03-01T04:31:09;53.50;;;24.00;;
36963;SDS011;22878;48.616;35.326;2023-03-01T04:33:48;53.40;;;23.90;;
36963;SDS011;22878;48.616;35.326;2023-03-01T04:36:16;60.40;;;26.30;;
36963;SDS011;22878;48.616;35.326;2023-03-01T04:38:43;64.90;;;26.10;;
36963;SDS011;22878;48.616;35.326;2023-03-01T04:41:13;60.20;;;26.60;;
36963;SDS011;22878;48.616;35.326;2023-03-01T04:43:41;63.30;;;27.80;;
36963;SDS011;22878;48.616;35.326;2023-03-01T04:46:07;67.50;;;28.20;;
36963;SDS011;22878;48.616;35.326;2023-03-01T04:48:36;63.20;;;28.10;;
36963;SDS011;22878;48.616;35.326;2023-03-01T04:51:03;71.10;;;29.70;;
36963;SDS011;22878;48.616;35.326;2023-03-01T04:53:29;70.10;;;28.70;;
36963;SDS011;22878;48.616;35.326;2023-03-01T04:55:56;72.90;;;28.80;;
36963;SDS011;22878;48.616;35.326;2023-03-01T04:58:26;71.90;;;30.50;;
36963;SDS011;22878;48.616;35.326;2023-03-01T05:00:52;73.80;;;30.20;;
36963;SDS011;22878;48.616;35.326;2023-03-01T05:03:18;68.40;;;29.20;;
36963;SDS011;22878;48.616;35.326;2023-03-01T05:05:46;63.30;;;28.10;;
36963;SDS011;22878;48.616;35.326;2023-03-01T05:08:13;61.50;;;24.60;;
36963;SDS011;22878;48.616;35.326;2023-03-01T05:10:49;59.30;;;22.80;;
36963;SDS011;22878;48.616;35.326;2023-03-01T05:13:16;51.20;;;20.30;;
36963;SDS011;22878;48.616;35.326;2023-03-01T05:15:55;50.10;;;19.30;;
36963;SDS011;22878;48.616;35.326;2023-03-01T05:18:23;46.90;;;18.10;;
36963;SDS011;22878;48.616;35.326;2023-03-01T05:20:56;47.50;;;17.80;;
36963;SDS011;22878;48.616;35.326;2023-03-01T05:23:37;42.90;;;17.30;;
36963;SDS011;22878;48.616;35.326;2023-03-01T05:26:03;48.80;;;16.30;;
36963;SDS011;22878;48.616;35.326;2023-03-01T05:28:30;34.00;;;15.50;;
36963;SDS011;22878;48.616;35.326;2023-03-01T05:30:56;36.40;;;16.10;;
36963;SDS011;22878;48.616;35.326;2023-03-01T05:33:22;45.10;;;16.10;;
36963;SDS011;22878;48.616;35.326;2023-03-01T05:35:49;35.30;;;15.50;;
36963;SDS011;22878;48.616;35.326;2023-03-01T05:38:15;34.70;;;15.30;;
36963;SDS011;22878;48.616;35.326;2023-03-01T05:40:42;35.00;;;15.50;;
36963;SDS011;22878;48.616;35.326;2023-03-01T05:43:09;35.70;;;16.80;;
36963;SDS011;22878;48.616;35.326;2023-03-01T05:45:36;34.10;;;15.20;;
36963;SDS011;22878;48.616;35.326;2023-03-01T05:48:06;32.80;;;14.50;;
36963;SDS011;22878;48.616;35.326;2023-03-01T05:50:37;34.70;;;14.80;;
36963;SDS011;22878;48.616;35.326;2023-03-01T05:53:06;32.00;;;14.10;;
36963;SDS011;22878;48.616;35.326;2023-03-01T05:55:38;33.20;;;15.10;;
36963;SDS011;22878;48.616;35.326;2023-03-01T05:58:06;27.50;;;14.10;;
36963;SDS011;22878;48.616;35.326;2023-03-01T06:00:34;37.10;;;15.10;;
36963;SDS011;22878;48.616;35.326;2023-03-01T06:03:00;34.40;;;14.10;;
36963;SDS011;22878;48.616;35.326;2023-03-01T06:05:26;31.90;;;15.00;;
36963;SDS011;22878;48.616;35.326;2023-03-01T06:07:52;25.30;;;13.50;;
36963;SDS011;22878;48.616;35.326;2023-03-01T06:10:19;25.20;;;13.00;;
36963;SDS011;22878;48.616;35.326;2023-03-01T06:12:46;21.70;;;13.00;;
36963;SDS011;22878;48.616;35.326;2023-03-01T06:15:13;22.60;;;12.60;;
36963;SDS011;22878;48.616;35.326;2023-03-01T06:17:41;25.10;;;12.40;;
36963;SDS011;22878;48.616;35.326;2023-03-01T06:20:09;20.50;;;11.90;;
36963;SDS011;22878;48.616;35.326;2023-03-01T06:22:43;23.10;;;12.30;;
36963;SDS011;22878;48.616;35.326;2023-03-01T06:25:10;21.00;;;11.90;;
36963;SDS011;22878;48.616;35.326;2023-03-01T06:27:37;20.60;;;11.50;;
36963;SDS011;22878;48.616;35.326;2023-03-01T06:30:03;17.00;;;11.10;;
36963;SDS011;22878;48.616;35.326;2023-03-01T06:32:29;19.80;;;10.10;;
36963;SDS011;22878;48.616;35.326;2023-03-01T06:34:56;15.70;;;9.80;;
36963;SDS011;22878;48.616;35.326;2023-03-01T06:37:24;16.30;;;9.80;;
36963;SDS011;22878;48.616;35.326;2023-03-01T06:39:50;13.90;;;8.80;;
36963;SDS011;22878;48.616;35.326;2023-03-01T06:42:16;14.40;;;9.90;;
36963;SDS011;22878;48.616;35.326;2023-03-01T06:44:41;15.10;;;10.30;;
36963;SDS011;22878;48.616;35.326;2023-03-01T06:47:07;14.10;;;9.70;;
36963;SDS011;22878;48.616;35.326;2023-03-01T06:49:32;14.20;;;9.90;;
36963;SDS011;22878;48.616;35.326;2023-03-01T06:51:58;13.70;;;9.00;;
36963;SDS011;22878;48.616;35.326;2023-03-01T06:54:24;14.70;;;9.70;;
36963;SDS011;22878;48.616;35.326;2023-03-01T06:56:49;14.60;;;9.40;;
36963;SDS011;22878;48.616;35.326;2023-03-01T06:59:15;16.80;;;10.00;;
36963;SDS011;22878;48.616;35.326;2023-03-01T07:05:03;17.40;;;9.70;;
36963;SDS011;22878;48.616;35.326;2023-03-01T07:07:29;14.90;;;8.80;;
36963;SDS011;22878;48.616;35.326;2023-03-01T07:09:55;13.50;;;8.90;;
36963;SDS011;22878;48.616;35.326;2023-03-01T07:12:20;13.90;;;8.90;;
36963;SDS011;22878;48.616;35.326;2023-03-01T07:14:46;17.80;;;9.20;;
36963;SDS011;22878;48.616;35.326;2023-03-01T07:17:11;13.70;;;9.70;;
36963;SDS011;22878;48.616;35.326;2023-03-01T07:19:37;12.80;;;9.10;;
36963;SDS011;22878;48.616;35.326;2023-03-01T07:22:03;11.30;;;8.30;;
36963;SDS011;22878;48.616;35.326;2023-03-01T07:24:29;12.80;;;8.80;;
36963;SDS011;22878;48.616;35.326;2023-03-01T07:26:55;11.80;;;8.50;;
36963;SDS011;22878;48.616;35.326;2023-03-01T07:29:20;15.10;;;9.50;;
36963;SDS011;22878;48.616;35.326;2023-03-01T07:31:46;14.30;;;9.10;;
36963;SDS011;22878;48.616;35.326;2023-03-01T07:34:12;13.10;;;9.20;;
36963;SDS011;22878;48.616;35.326;2023-03-01T07:36:37;14.10;;;8.70;;
36963;SDS011;22878;48.616;35.326;2023-03-01T07:39:04;12.20;;;8.80;;
36963;SDS011;22878;48.616;35.326;2023-03-01T07:41:30;15.00;;;8.40;;
36963;SDS011;22878;48.616;35.326;2023-03-01T07:43:55;15.80;;;8.60;;
36963;SDS011;22878;48.616;35.326;2023-03-01T07:46:21;16.00;;;8.90;;
36963;SDS011;22878;48.616;35.326;2023-03-01T07:48:47;18.60;;;9.20;;
36963;SDS011;22878;48.616;35.326;2023-03-01T07:51:12;15.30;;;8.20;;
36963;SDS011;22878;48.616;35.326;2023-03-01T07:53:38;14.90;;;8.70;;
36963;SDS011;22878;48.616;35.326;2023-03-01T07:56:04;14.40;;;8.20;;
36963;SDS011;22878;48.616;35.326;2023-03-01T07:58:35;16.40;;;8.80;;
36963;SDS011;22878;48.616;35.326;2023-03-01T08:01:03;17.60;;;8.30;;
36963;SDS011;22878;48.616;35.326;2023-03-01T08:03:29;14.60;;;8.30;;
36963;SDS011;22878;48.616;35.326;2023-03-01T08:05:55;15.20;;;8.20;;
36963;SDS011;22878;48.616;35.326;2023-03-01T08:08:21;16.10;;;8.70;;
36963;SDS011;22878;48.616;35.326;2023-03-01T08:10:46;17.00;;;8.70;;
36963;SDS011;22878;48.616;35.326;2023-03-01T08:13:12;16.30;;;8.40;;
36963;SDS011;22878;48.616;35.326;2023-03-01T08:15:38;16.80;;;8.80;;
36963;SDS011;22878;48.616;35.326;2023-03-01T08:18:03;19.40;;;8.90;;
36963;SDS011;22878;48.616;35.326;2023-03-01T08:20:29;20.60;;;9.50;;
36963;SDS011;22878;48.616;35.326;2023-03-01T08:22:55;19.30;;;8.50;;
36963;SDS011;22878;48.616;35.326;2023-03-01T08:25:22;18.00;;;8.80;;
36963;SDS011;22878;48.616;35.326;2023-03-01T08:27:48;17.00;;;8.10;;
36963;SDS011;22878;48.616;35.326;2023-03-01T08:30:13;21.10;;;8.70;;
36963;SDS011;22878;48.616;35.326;2023-03-01T08:32:39;19.10;;;8.80;;
36963;SDS011;22878;48.616;35.326;2023-03-01T08:35:05;16.90;;;8.00;;
36963;SDS011;22878;48.616;35.326;2023-03-01T08:37:31;17.40;;;8.30;;
36963;SDS011;22878;48.616;35.326;2023-03-01T08:39:58;18.60;;;8.40;;
36963;SDS011;22878;48.616;35.326;2023-03-01T08:42:25;17.90;;;8.30;;
36963;SDS011;22878;48.616;35.326;2023-03-01T08:44:51;19.10;;;7.70;;
36963;SDS011;22878;48.616;35.326;2023-03-01T08:47:17;17.60;;;8.10;;
36963;SDS011;22878;48.616;35.326;2023-03-01T08:49:42;17.60;;;8.40;;
36963;SDS011;22878;48.616;35.326;2023-03-01T08:52:08;17.30;;;7.80;;
36963;SDS011;22878;48.616;35.326;2023-03-01T08:54:33;19.20;;;7.70;;
36963;SDS011;22878;48.616;35.326;2023-03-01T08:57:01;16.00;;;8.40;;
36963;SDS011;22878;48.616;35.326;2023-03-01T08:59:27;14.80;;;7.40;;
36963;SDS011;22878;48.616;35.326;2023-03-01T09:01:54;13.50;;;7.60;;
36963;SDS011;22878;48.616;35.326;2023-03-01T09:04:20;12.80;;;7.20;;
36963;SDS011;22878;48.616;35.326;2023-03-01T09:06:46;15.30;;;7.80;;
36963;SDS011;22878;48.616;35.326;2023-03-01T09:09:16;14.60;;;7.70;;
36963;SDS011;22878;48.616;35.326;2023-03-01T09:11:43;15.70;;;7.30;;
36963;SDS011;22878;48.616;35.326;2023-03-01T09:14:11;14.30;;;7.30;;
36963;SDS011;22878;48.616;35.326;2023-03-01T09:16:40;16.00;;;7.90;;
36963;SDS011;22878;48.616;35.326;2023-03-01T09:19:05;15.60;;;7.50;;
36963;SDS011;22878;48.616;35.326;2023-03-01T09:21:31;15.20;;;7.40;;
36963;SDS011;22878;48.616;35.326;2023-03-01T09:23:57;16.10;;;7.80;;
36963;SDS011;22878;48.616;35.326;2023-03-01T09:26:23;16.20;;;7.50;;
36963;SDS011;22878;48.616;35.326;2023-03-01T09:28:50;16.60;;;7.40;;
36963;SDS011;22878;48.616;35.326;2023-03-01T09:31:19;15.70;;;7.90;;
36963;SDS011;22878;48.616;35.326;2023-03-01T09:33:47;15.70;;;7.50;;
36963;SDS011;22878;48.616;35.326;2023-03-01T09:36:17;15.30;;;7.70;;
36963;SDS011;22878;48.616;35.326;2023-03-01T09:38:45;16.20;;;7.20;;
36963;SDS011;22878;48.616;35.326;2023-03-01T09:46:11;14.50;;;7.40;;
36963;SDS011;22878;48.616;35.326;2023-03-01T09:49:03;20.80;;;8.50;;
36963;SDS011;22878;48.616;35.326;2023-03-01T09:51:31;16.50;;;8.30;;
36963;SDS011;22878;48.616;35.326;2023-03-01T09:54:00;17.50;;;7.30;;
36963;SDS011;22878;48.616;35.326;2023-03-01T09:56:40;17.80;;;7.80;;
36963;SDS011;22878;48.616;35.326;2023-03-01T10:07:27;17.20;;;8.50;;
36963;SDS011;22878;48.616;35.326;2023-03-01T10:10:07;17.30;;;7.90;;
36963;SDS011;22878;48.616;35.326;2023-03-01T10:12:35;15.80;;;7.50;;
36963;SDS011;22878;48.616;35.326;2023-03-01T10:15:15;18.00;;;8.50;;
36963;SDS011;22878;48.616;35.326;2023-03-01T10:20:24;20.60;;;8.50;;
36963;SDS011;22878;48.616;35.326;2023-03-01T10:22:51;16.10;;;7.90;;
36963;SDS011;22878;48.616;35.326;2023-03-01T10:28:20;18.80;;;8.00;;
36963;SDS011;22878;48.616;35.326;2023-03-01T10:30:49;16.50;;;7.90;;
36963;SDS011;22878;48.616;35.326;2023-03-01T10:33:19;19.00;;;7.90;;
36963;SDS011;22878;48.616;35.326;2023-03-01T10:38:14;17.20;;;8.30;;
36963;SDS011;22878;48.616;35.326;2023-03-01T10:40:51;18.20;;;9.00;;
36963;SDS011;22878;48.616;35.326;2023-03-01T10:49:16;18.50;;;9.20;;
36963;SDS011;22878;48.616;35.326;2023-03-01T10:52:18;19.20;;;9.10;;
36963;SDS011;22878;48.616;35.326;2023-03-01T10:54:55;19.30;;;8.80;;
36963;SDS011;22878;48.616;35.326;2023-03-01T10:57:41;21.00;;;9.00;;
36963;SDS011;22878;48.616;35.326;2023-03-01T11:02:45;17.70;;;9.30;;
36963;SDS011;22878;48.616;35.326;2023-03-01T11:07:49;20.70;;;10.10;;
36963;SDS011;22878;48.616;35.326;2023-03-01T11:10:17;22.80;;;10.10;;
36963;SDS011;22878;48.616;35.326;2023-03-01T11:12:48;24.10;;;11.30;;
36963;SDS011;22878;48.616;35.326;2023-03-01T11:15:22;23.80;;;11.50;;
36963;SDS011;22878;48.616;35.326;2023-03-01T11:17:53;23.70;;;11.00;;
36963;SDS011;22878;48.616;35.326;2023-03-01T11:22:56;30.50;;;12.00;;
36963;SDS011;22878;48.616;35.326;2023-03-01T11:25:35;25.90;;;12.20;;
36963;SDS011;22878;48.616;35.326;2023-03-01T11:28:05;22.80;;;11.60;;
36963;SDS011;22878;48.616;35.326;2023-03-01T11:33:11;23.10;;;11.30;;
36963;SDS011;22878;48.616;35.326;2023-03-01T11:38:45;29.90;;;12.80;;
36963;SDS011;22878;48.616;35.326;2023-03-01T11:41:15;25.10;;;12.30;;
36963;SDS011;22878;48.616;35.326;2023-03-01T12:00:05;28.30;;;13.90;;
36963;SDS011;22878;48.616;35.326;2023-03-01T12:02:39;24.70;;;13.30;;
36963;SDS011;22878;48.616;35.326;2023-03-01T12:05:40;27.00;;;13.30;;
36963;SDS011;22878;48.616;35.326;2023-03-01T12:21:37;30.00;;;14.80;;
36963;SDS011;22878;48.616;35.326;2023-03-01T12:49:36;22.00;;;11.50;;
36963;SDS011;22878;48.616;35.326;2023-03-01T12:55:00;22.60;;;11.60;;
36963;SDS011;22878;48.616;35.326;2023-03-01T13:08:55;24.10;;;11.20;;
36963;SDS011;22878;48.616;35.326;2023-03-01T13:11:29;21.90;;;10.80;;
36963;SDS011;22878;48.616;35.326;2023-03-01T13:16:54;20.00;;;10.60;;
36963;SDS011;22878;48.616;35.326;2023-03-01T13:19:27;21.40;;;10.60;;
36963;SDS011;22878;48.616;35.326;2023-03-01T13:21:54;23.60;;;10.90;;
36963;SDS011;22878;48.616;35.326;2023-03-01T13:29:47;21.30;;;10.40;;
36963;SDS011;22878;48.616;35.326;2023-03-01T13:35:00;22.00;;;11.30;;
36963;SDS011;22878;48.616;35.326;2023-03-01T13:37:32;22.00;;;11.10;;
36963;SDS011;22878;48.616;35.326;2023-03-01T13:40:01;19.80;;;10.20;;
36963;SDS011;22878;48.616;35.326;2023-03-01T13:45:02;22.20;;;10.80;;
36963;SDS011;22878;48.616;35.326;2023-03-01T13:47:29;21.20;;;10.70;;
36963;SDS011;22878;48.616;35.326;2023-03-01T13:49:59;25.60;;;11.10;;
36963;SDS011;22878;48.616;35.326;2023-03-01T13:52:36;19.30;;;10.50;;
36963;SDS011;22878;48.616;35.326;2023-03-01T13:55:21;18.60;;;9.50;;
36963;SDS011;22878;48.616;35.326;2023-03-01T13:57:51;19.30;;;10.30;;
36963;SDS011;22878;48.616;35.326;2023-03-01T14:00:34;26.90;;;11.80;;
36963;SDS011;22878;48.616;35.326;2023-03-01T14:03:12;22.20;;;10.70;;
36963;SDS011;22878;48.616;35.326;2023-03-01T14:05:41;23.90;;;10.60;;
36963;SDS011;22878;48.616;35.326;2023-03-01T14:08:19;23.10;;;11.10;;
36963;SDS011;22878;48.616;35.326;2023-03-01T14:11:00;20.30;;;10.70;;
36963;SDS011;22878;48.616;35.326;2023-03-01T14:19:41;23.40;;;11.70;;
36963;SDS011;22878;48.616;35.326;2023-03-01T14:24:40;23.30;;;11.40;;
36963;SDS011;22878;48.616;35.326;2023-03-01T14:27:14;22.50;;;11.50;;
36963;SDS011;22878;48.616;35.326;2023-03-01T14:29:41;24.90;;;12.10;;
36963;SDS011;22878;48.616;35.326;2023-03-01T14:32:10;24.00;;;11.60;;
36963;SDS011;22878;48.616;35.326;2023-03-01T14:34:49;26.90;;;12.10;;
36963;SDS011;22878;48.616;35.326;2023-03-01T14:37:25;25.50;;;12.10;;
36963;SDS011;22878;48.616;35.326;2023-03-01T14:39:50;27.60;;;12.30;;
36963;SDS011;22878;48.616;35.326;2023-03-01T14:42:17;26.30;;;12.30;;
36963;SDS011;22878;48.616;35.326;2023-03-01T14:44:46;23.40;;;11.40;;
36963;SDS011;22878;48.616;35.326;2023-03-01T14:47:15;27.20;;;11.20;;
36963;SDS011;22878;48.616;35.326;2023-03-01T14:52:18;22.10;;;11.50;;
36963;SDS011;22878;48.616;35.326;2023-03-01T14:54:53;23.20;;;11.70;;
36963;SDS011;22878;48.616;35.326;2023-03-01T14:57:20;23.60;;;11.50;;
36963;SDS011;22878;48.616;35.326;2023-03-01T14:59:48;25.20;;;12.00;;
36963;SDS011;22878;48.616;35.326;2023-03-01T15:02:18;23.00;;;11.90;;
36963;SDS011;22878;48.616;35.326;2023-03-01T15:04:49;23.20;;;11.60;;
36963;SDS011;22878;48.616;35.326;2023-03-01T15:07:17;22.90;;;11.30;;
36963;SDS011;22878;48.616;35.326;2023-03-01T15:09:44;23.70;;;11.60;;
36963;SDS011;22878;48.616;35.326;2023-03-01T15:18:14;22.50;;;10.60;;
36963;SDS011;22878;48.616;35.326;2023-03-01T15:20:50;23.40;;;11.90;;
36963;SDS011;22878;48.616;35.326;2023-03-01T15:23:18;25.30;;;11.60;;
36963;SDS011;22878;48.616;35.326;2023-03-01T15:25:46;26.30;;;12.40;;
36963;SDS011;22878;48.616;35.326;2023-03-01T15:28:18;29.50;;;12.00;;
36963;SDS011;22878;48.616;35.326;2023-03-01T15:30:45;29.00;;;12.10;;
36963;SDS011;22878;48.616;35.326;2023-03-01T15:33:36;26.60;;;11.80;;
36963;SDS011;22878;48.616;35.326;2023-03-01T15:36:29;25.70;;;11.60;;
36963;SDS011;22878;48.616;35.326;2023-03-01T15:39:05;26.50;;;11.80;;
36963;SDS011;22878;48.616;35.326;2023-03-01T15:42:04;25.20;;;12.10;;
36963;SDS011;22878;48.616;35.326;2023-03-01T15:44:36;30.50;;;13.30;;
36963;SDS011;22878;48.616;35.326;2023-03-01T15:47:23;28.70;;;13.40;;
36963;SDS011;22878;48.616;35.326;2023-03-01T15:49:51;28.50;;;13.10;;
36963;SDS011;22878;48.616;35.326;2023-03-01T15:52:25;35.40;;;14.70;;
36963;SDS011;22878;48.616;35.326;2023-03-01T15:54:59;31.90;;;14.30;;
36963;SDS011;22878;48.616;35.326;2023-03-01T15:57:27;30.80;;;14.20;;
36963;SDS011;22878;48.616;35.326;2023-03-01T15:59:52;34.40;;;15.20;;
36963;SDS011;22878;48.616;35.326;2023-03-01T16:02:18;32.30;;;14.10;;
36963;SDS011;22878;48.616;35.326;2023-03-01T16:04:46;31.90;;;15.00;;
36963;SDS011;22878;48.616;35.326;2023-03-01T16:07:12;35.30;;;14.60;;
36963;SDS011;22878;48.616;35.326;2023-03-01T16:09:38;32.40;;;14.90;;
36963;SDS011;22878;48.616;35.326;2023-03-01T16:12:03;33.00;;;15.10;;
36963;SDS011;22878;48.616;35.326;2023-03-01T16:14:29;35.20;;;15.00;;
36963;SDS011;22878;48.616;35.326;2023-03-01T16:16:55;33.50;;;15.10;;
36963;SDS011;22878;48.616;35.326;2023-03-01T16:19:20;34.80;;;15.50;;
36963;SDS011;22878;48.616;35.326;2023-03-01T16:21:46;30.40;;;15.10;;
36963;SDS011;22878;48.616;35.326;2023-03-01T16:24:13;30.90;;;14.90;;
36963;SDS011;22878;48.616;35.326;2023-03-01T16:26:39;32.70;;;15.10;;
36963;SDS011;22878;48.616;35.326;2023-03-01T16:29:05;28.60;;;14.90;;
36963;SDS011;22878;48.616;35.326;2023-03-01T16:31:31;38.50;;;15.80;;
36963;SDS011;22878;48.616;35.326;2023-03-01T16:33:57;36.80;;;15.00;;
36963;SDS011;22878;48.616;35.326;2023-03-01T16:36:25;31.70;;;15.50;;
36963;SDS011;22878;48.616;35.326;2023-03-01T16:38:53;33.30;;;16.10;;
36963;SDS011;22878;48.616;35.326;2023-03-01T16:41:20;32.80;;;15.60;;
36963;SDS011;22878;48.616;35.326;2023-03-01T16:43:47;35.20;;;15.80;;
36963;SDS011;22878;48.616;35.326;2023-03-01T16:46:13;34.60;;;15.50;;
36963;SDS011;22878;48.616;35.326;2023-03-01T16:48:45;33.80;;;15.40;;
36963;SDS011;22878;48.616;35.326;2023-03-01T16:51:11;35.30;;;16.10;;
36963;SDS011;22878;48.616;35.326;2023-03-01T16:53:37;31.70;;;16.10;;
36963;SDS011;22878;48.616;35.326;2023-03-01T16:56:04;39.10;;;17.40;;
36963;SDS011;22878;48.616;35.326;2023-03-01T16:58:31;35.90;;;16.90;;
36963;SDS011;22878;48.616;35.326;2023-03-01T17:01:02;40.10;;;17.30;;
36963;SDS011;22878;48.616;35.326;2023-03-01T17:03:39;41.60;;;18.10;;
36963;SDS011;22878;48.616;35.326;2023-03-01T17:06:12;40.80;;;18.60;;